Time;durP1;ratioP1;P1;durP2;ratioP2;P2;SDS_P1;SDS_P2;PMS_P1;PMS_P2;Temp;Humidity;BMP_temperature;BMP_pressure;BME280_temperature;BME280_humidity;BME280_pressure;Samples;Min_cycle;Max_cycle;Signal;HPM_P1;HPM_P2
2023/05/08 00:01:24;;;;;;;9.73;8.73;;;;;;;14.32;100.00;100692.34;5057621;28;20065;-94
2023/05/08 00:04:00;;;;;;;10.32;8.88;;;;;;;14.09;100.00;100655.50;5054443;28;20102;-92
2023/05/08 00:06:30;;;;;;;10.70;9.20;;;;;;;14.50;100.00;100731.25;5055777;28;20072;-93
2023/05/08 00:09:00;;;;;;;9.95;8.95;;;;;;;14.22;100.00;100689.34;5041144;28;20033;-94
2023/05/08 00:11:30;;;;;;;10.82;9.73;;;;;;;13.93;100.00;100645.75;5055373;28;20038;-92
2023/05/08 00:13:57;;;;;;;10.63;9.45;;;;;;;13.87;100.00;100651.41;5054834;28;20037;-93
2023/05/08 00:16:25;;;;;;;11.38;10.25;;;;;;;14.09;100.00;100696.31;5057153;28;20124;-92
2023/05/08 00:18:56;;;;;;;10.70;9.70;;;;;;;13.88;100.00;100666.44;5041262;28;20037;-93
2023/05/08 00:21:28;;;;;;;10.32;9.30;;;;;;;14.35;100.00;100748.09;5057209;28;20100;-93
2023/05/08 00:23:56;;;;;;;8.93;8.02;;;;;;;14.21;100.00;100724.91;5057144;28;20042;-91
2023/05/08 00:26:26;;;;;;;10.98;9.88;;;;;;;14.31;100.00;100733.25;5039883;28;20055;-92
2023/05/08 00:28:53;;;;;;;10.55;9.55;;;;;;;13.84;100.00;100659.59;5057699;28;20041;-93
2023/05/08 00:31:33;;;;;;;10.82;9.43;;;;;;;14.13;100.00;100713.00;5045311;28;20096;-93
2023/05/08 00:34:01;;;;;;;9.85;8.85;;;;;;;14.30;100.00;100745.72;5042383;28;20117;-92
2023/05/08 00:36:31;;;;;;;10.73;9.60;;;;;;;14.09;100.00;100701.66;5042710;28;20049;-92
2023/05/08 00:39:00;;;;;;;10.45;9.43;;;;;;;14.27;100.00;100732.56;5042854;28;20556;-91
2023/05/08 00:41:29;;;;;;;10.10;9.15;;;;;;;13.78;100.00;100643.09;5041512;28;20354;-94
2023/05/08 00:44:00;;;;;;;10.32;9.32;;;;;;;14.30;100.00;100743.06;5040793;28;20156;-94
2023/05/08 00:46:29;;;;;;;10.98;9.75;;;;;;;14.27;100.00;100743.22;5042331;28;20045;-92
2023/05/08 00:49:00;;;;;;;10.63;9.55;;;;;;;14.15;100.00;100741.25;5041205;28;20055;-94
2023/05/08 00:51:32;;;;;;;11.47;10.27;;;;;;;14.11;100.00;100731.72;5041121;28;20049;-93
2023/05/08 00:54:02;;;;;;;10.38;9.30;;;;;;;14.18;100.00;100738.41;5044148;28;20049;-95
2023/05/08 00:56:34;;;;;;;10.85;9.55;;;;;;;14.20;100.00;100740.97;5046425;28;20056;-95
2023/05/08 00:59:15;;;;;;;9.98;9.00;;;;;;;14.07;100.00;100711.53;5048213;28;20049;-92
2023/05/08 01:01:47;;;;;;;10.98;9.57;;;;;;;14.04;100.00;100717.00;5046889;28;20088;-94
2023/05/08 01:04:18;;;;;;;10.55;9.45;;;;;;;13.83;100.00;100688.94;5032103;28;20478;-93
2023/05/08 01:06:46;;;;;;;10.00;8.98;;;;;;;13.82;100.00;100690.75;5048278;28;20469;-94
2023/05/08 01:09:13;;;;;;;10.82;9.73;;;;;;;13.97;100.00;100707.66;5048155;28;20117;-94
2023/05/08 01:12:03;;;;;;;13.52;10.30;;;;;;;14.11;100.00;100728.19;5048155;28;20047;-92
2023/05/08 01:14:57;;;;;;;10.77;9.77;;;;;;;13.99;100.00;100714.63;5040703;28;20076;-94
2023/05/08 01:18:00;;;;;;;12.50;9.57;;;;;;;14.05;100.00;100734.72;5042147;28;20069;-94
2023/05/08 01:20:45;;;;;;;10.68;9.57;;;;;;;14.13;100.00;100751.13;5043888;28;20088;-93
2023/05/08 01:24:08;;;;;;;10.07;9.07;;;;;;;14.16;100.00;100755.44;5056395;28;20052;-93
2023/05/08 01:26:56;;;;;;;9.82;8.82;;;;;;;14.11;100.00;100761.00;5043532;28;20046;-94
2023/05/08 01:30:02;;;;;;;11.50;9.30;;;;;;;14.05;100.00;100761.34;5040405;28;20049;-94
2023/05/08 01:32:35;;;;;;;10.25;9.25;;;;;;;13.98;100.00;100768.81;5076900;28;20045;-94
2023/05/08 01:35:26;;;;;;;10.40;9.40;;;;;;;13.96;100.00;100764.53;5055151;28;20053;-93
2023/05/08 01:38:11;;;;;;;10.10;9.20;;;;;;;13.85;100.00;100757.09;5054978;28;20052;-93
2023/05/08 01:40:52;;;;;;;10.80;9.70;;;;;;;13.63;100.00;100730.81;5050955;28;20105;-93
2023/05/08 01:43:31;;;;;;;10.70;9.50;;;;;;;13.79;100.00;100759.25;5045373;28;20085;-94
2023/05/08 01:46:17;;;;;;;10.38;9.27;;;;;;;13.81;100.00;100770.69;5044885;28;20049;-94
2023/05/08 01:49:04;;;;;;;10.27;9.23;;;;;;;13.76;100.00;100762.94;5042797;28;20459;-94
2023/05/08 01:51:44;;;;;;;10.88;9.73;;;;;;;13.80;100.00;100760.97;5045494;28;20107;-94
2023/05/08 01:54:21;;;;;;;10.63;9.52;;;;;;;13.63;100.00;100744.13;5044855;28;20042;-94
2023/05/08 01:56:51;;;;;;;11.15;10.15;;;;;;;13.80;100.00;100780.47;5049092;28;20053;-93
2023/05/08 01:59:22;;;;;;;12.40;9.38;;;;;;;13.83;100.00;100779.44;5053166;28;20048;-94
2023/05/08 02:01:55;;;;;;;11.30;9.23;;;;;;;13.80;100.00;100774.28;5055718;28;20061;-93
2023/05/08 02:04:26;;;;;;;10.02;8.85;;;;;;;13.71;100.00;100759.66;5051142;28;20073;-93
2023/05/08 02:06:55;;;;;;;10.02;9.02;;;;;;;13.81;100.00;100776.88;5047207;28;20045;-93
2023/05/08 02:09:25;;;;;;;10.48;9.40;;;;;;;13.63;100.00;100756.56;5046865;28;20037;-93
2023/05/08 02:11:54;;;;;;;10.30;9.20;;;;;;;13.88;100.00;100785.38;5048258;28;20049;-93
2023/05/08 02:14:22;;;;;;;11.00;9.80;;;;;;;13.86;100.00;100780.13;5050624;28;20154;-94
2023/05/08 02:16:54;;;;;;;12.48;10.10;;;;;;;13.74;100.00;100769.28;5050293;28;20065;-92
2023/05/08 02:19:24;;;;;;;10.60;9.50;;;;;;;13.81;100.00;100784.84;5055110;28;20049;-94
2023/05/08 02:21:51;;;;;;;12.48;9.43;;;;;;;13.65;100.00;100776.84;5050272;28;20037;-93
2023/05/08 02:24:19;;;;;;;10.38;9.20;;;;;;;13.69;100.00;100780.19;5053328;28;20052;-94
2023/05/08 02:26:50;;;;;;;10.63;9.52;;;;;;;13.43;100.00;100751.44;5050368;28;20052;-94
2023/05/08 02:29:18;;;;;;;10.63;9.52;;;;;;;13.27;100.00;100733.63;5045844;28;20056;-92
2023/05/08 02:31:46;;;;;;;11.10;9.88;;;;;;;13.65;100.00;100802.59;5051393;28;20068;-93
2023/05/08 02:34:15;;;;;;;11.32;10.20;;;;;;;13.29;100.00;100746.84;5053133;28;20045;-93
2023/05/08 02:36:44;;;;;;;13.57;9.57;;;;;;;13.53;100.00;100788.13;5085308;28;20033;-94
2023/05/08 02:39:13;;;;;;;10.43;9.43;;;;;;;13.64;100.00;100808.84;5047123;28;20048;-92
2023/05/08 02:41:41;;;;;;;10.82;9.73;;;;;;;13.56;100.00;100801.25;5047044;28;20383;-94
2023/05/08 02:44:10;;;;;;;11.38;10.18;;;;;;;13.59;100.00;100813.53;5045324;28;20046;-92
2023/05/08 02:46:56;;;;;;;10.82;9.73;;;;;;;13.56;100.00;100811.03;5046075;28;20057;-92
2023/05/08 02:49:53;;;;;;;10.80;9.80;;;;;;;13.49;100.00;100797.22;5056163;28;20038;-93
2023/05/08 02:52:28;;;;;;;11.63;10.20;;;;;;;13.46;100.00;100809.81;5054157;28;20060;-93
2023/05/08 02:55:00;;;;;;;10.98;9.48;;;;;;;13.45;100.00;100818.72;5059021;28;20073;-94
2023/05/08 02:57:52;;;;;;;10.98;9.88;;;;;;;13.46;100.00;100821.31;5058351;28;20041;-94
2023/05/08 03:00:34;;;;;;;11.30;10.10;;;;;;;13.44;100.00;100825.00;5058649;28;20076;-95
2023/05/08 03:03:18;;;;;;;10.95;9.85;;;;;;;13.32;100.00;100789.25;5058420;28;20076;-95
2023/05/08 03:05:51;;;;;;;13.35;9.77;;;;;;;13.41;100.00;100820.69;5049796;28;20060;-95
2023/05/08 03:08:34;;;;;;;11.13;9.95;;;;;;;13.44;100.00;100809.88;5049154;28;20045;-95
2023/05/08 03:11:08;;;;;;;11.90;10.15;;;;;;;13.45;100.00;100797.44;5047560;28;20053;-95
2023/05/08 03:13:46;;;;;;;11.00;9.93;;;;;;;13.38;100.00;100801.38;5049640;28;20536;-94
2023/05/08 03:16:24;;;;;;;10.77;9.68;;;;;;;13.28;100.00;100793.00;5049089;28;20069;-94
2023/05/08 03:18:59;;;;;;;11.63;10.43;;;;;;;13.26;100.00;100816.16;5047774;28;20056;-95
2023/05/08 03:21:29;;;;;;;11.20;10.10;;;;;;;13.24;100.00;100813.56;5045652;28;20048;-94
2023/05/08 03:23:59;;;;;;;11.63;10.35;;;;;;;13.19;100.00;100806.78;5049007;28;20053;-96
2023/05/08 03:26:29;;;;;;;12.43;10.63;;;;;;;13.20;100.00;100811.16;5054110;28;20060;-94
2023/05/08 03:28:59;;;;;;;13.27;10.70;;;;;;;13.17;100.00;100811.31;5058238;28;20071;-94
2023/05/08 03:31:27;;;;;;;11.50;10.30;;;;;;;13.14;100.00;100812.28;5058014;28;20037;-95
2023/05/08 03:33:55;;;;;;;12.38;10.00;;;;;;;13.09;100.00;100808.13;5058220;28;20152;-95
2023/05/08 03:36:25;;;;;;;13.00;10.75;;;;;;;13.09;100.00;100816.97;5058612;28;20045;-95
2023/05/08 03:38:56;;;;;;;11.82;10.73;;;;;;;13.05;100.00;100812.78;5058031;28;20064;-93
2023/05/08 03:41:25;;;;;;;12.05;10.75;;;;;;;13.04;100.00;100810.19;5048905;28;20101;-94
2023/05/08 03:43:53;;;;;;;13.15;10.35;;;;;;;13.02;100.00;100812.06;5043646;28;20501;-93
2023/05/08 03:46:22;;;;;;;13.60;11.02;;;;;;;13.04;100.00;100804.88;5044277;28;20084;-94
2023/05/08 03:48:53;;;;;;;11.10;9.95;;;;;;;13.10;100.00;100821.34;5043280;28;20088;-93
2023/05/08 03:51:21;;;;;;;12.90;10.73;;;;;;;13.09;100.00;100821.44;5042310;28;20121;-91
2023/05/08 03:53:48;;;;;;;10.95;9.85;;;;;;;13.09;100.00;100818.78;5045989;28;20045;-92
2023/05/08 03:56:14;;;;;;;12.05;10.75;;;;;;;13.09;100.00;100830.28;5047895;28;20060;-92
2023/05/08 03:58:59;;;;;;;12.90;10.48;;;;;;;13.13;100.00;100823.00;5048111;28;20052;-90
2023/05/08 04:01:42;;;;;;;12.73;11.18;;;;;;;13.16;100.00;100829.06;5043739;28;20418;-91
2023/05/08 04:04:18;;;;;;;11.85;10.65;;;;;;;13.13;100.00;100820.34;5057316;28;20060;-94
2023/05/08 04:06:58;;;;;;;14.23;10.68;;;;;;;13.10;100.00;100826.69;5056755;28;20038;-92
2023/05/08 04:09:25;;;;;;;11.98;10.73;;;;;;;13.10;100.00;100839.09;5057430;28;20132;-92
2023/05/08 04:12:02;;;;;;;12.50;10.43;;;;;;;13.09;100.00;100840.91;5056089;28;20072;-92
2023/05/08 04:14:54;;;;;;;11.52;10.32;;;;;;;13.10;100.00;100831.13;5048183;28;20111;-94
2023/05/08 04:17:39;;;;;;;12.63;11.27;;;;;;;13.05;100.00;100843.81;5037788;28;20041;-94
2023/05/08 04:20:14;;;;;;;11.85;10.57;;;;;;;13.00;100.00;100842.25;5043623;28;20045;-91
2023/05/08 04:22:47;;;;;;;12.13;10.52;;;;;;;12.97;100.00;100831.75;5037607;28;20045;-91
2023/05/08 04:25:16;;;;;;;12.73;11.43;;;;;;;13.04;100.00;100842.97;5038243;28;20060;-91
2023/05/08 04:27:44;;;;;;;12.40;11.10;;;;;;;12.89;100.00;100817.13;5035561;28;20045;-88
2023/05/08 04:30:11;;;;;;;13.98;11.55;;;;;;;12.96;100.00;100824.72;5038023;28;20117;-88
2023/05/08 04:32:38;;;;;;;14.43;10.68;;;;;;;12.91;100.00;100826.72;5038697;28;20136;-87
2023/05/08 04:35:12;;;;;;;12.55;11.27;;;;;;;12.99;100.00;100840.53;5040896;28;20124;-91
2023/05/08 04:37:43;;;;;;;12.80;11.25;;;;;;;13.03;100.00;100846.56;5040184;28;20053;-91
2023/05/08 04:40:11;;;;;;;12.32;10.90;;;;;;;13.09;100.00;100842.69;5039462;28;20048;-91
2023/05/08 04:43:04;;;;;;;12.60;11.05;;;;;;;13.11;100.00;100832.84;5039846;28;20087;-92
2023/05/08 04:45:31;;;;;;;12.32;11.00;;;;;;;13.09;100.00;100837.38;5040227;28;20055;-91
2023/05/08 04:48:03;;;;;;;12.02;10.20;;;;;;;12.92;100.00;100815.16;5039190;28;20470;-92
2023/05/08 04:50:30;;;;;;;11.95;10.43;;;;;;;12.90;100.00;100810.88;5039642;28;20053;-93
2023/05/08 04:53:21;;;;;;;12.55;11.23;;;;;;;12.93;100.00;100814.22;5042516;28;20134;-93
2023/05/08 04:55:47;;;;;;;14.55;10.68;;;;;;;12.98;100.00;100828.16;5038817;28;20148;-93
2023/05/08 04:58:15;;;;;;;11.73;10.50;;;;;;;13.08;100.00;100848.97;5041085;28;20139;-91
2023/05/08 05:00:42;;;;;;;13.32;11.18;;;;;;;12.98;100.00;100844.13;5041227;28;20045;-92
2023/05/08 05:03:12;;;;;;;12.57;11.00;;;;;;;13.06;100.00;100858.84;5074389;28;20049;-92
2023/05/08 05:05:38;;;;;;;13.80;11.27;;;;;;;13.04;100.00;100861.56;5024539;28;20099;-91
2023/05/08 05:08:09;;;;;;;11.82;10.60;;;;;;;12.96;100.00;100850.44;5073168;28;20049;-92
2023/05/08 05:10:43;;;;;;;11.80;10.60;;;;;;;13.08;100.00;100863.13;5045765;28;20053;-91
2023/05/08 05:13:23;;;;;;;12.95;10.73;;;;;;;13.10;100.00;100861.25;5047683;28;20047;-92
2023/05/08 05:15:53;;;;;;;12.20;10.85;;;;;;;12.96;100.00;100845.97;5050656;28;20049;-92
2023/05/08 05:18:22;;;;;;;12.02;10.82;;;;;;;12.88;100.00;100834.88;5054203;28;20051;-92
2023/05/08 05:20:49;;;;;;;13.45;11.02;;;;;;;13.13;100.00;100873.53;5055783;28;20038;-91
2023/05/08 05:23:16;;;;;;;14.20;11.60;;;;;;;12.81;100.00;100822.81;5056450;28;20045;-91
2023/05/08 05:25:43;;;;;;;12.50;11.00;;;;;;;13.10;100.00;100879.84;5055841;28;20065;-91
2023/05/08 05:28:10;;;;;;;11.82;10.50;;;;;;;13.09;100.00;100877.28;5052593;28;20055;-92
2023/05/08 05:30:37;;;;;;;13.00;11.10;;;;;;;13.11;100.00;100886.91;5049172;28;20504;-93
2023/05/08 05:33:08;;;;;;;12.93;11.20;;;;;;;12.95;100.00;100862.00;5045210;28;20172;-92
2023/05/08 05:35:36;;;;;;;12.98;10.82;;;;;;;12.85;100.00;100842.13;5049409;28;20046;-91
2023/05/08 05:38:18;;;;;;;13.82;11.32;;;;;;;13.12;100.00;100882.44;5057775;28;20097;-91
2023/05/08 05:41:08;;;;;;;13.05;11.43;;;;;;;12.98;100.00;100859.19;5024193;28;20120;-94
2023/05/08 05:43:35;;;;;;;13.63;11.43;;;;;;;12.95;100.00;100870.84;5028761;28;20045;-93
2023/05/08 05:46:06;;;;;;;14.60;11.88;;;;;;;12.97;100.00;100878.75;5045994;28;20045;-92
2023/05/08 05:48:33;;;;;;;13.57;11.52;;;;;;;13.06;100.00;100898.72;5055325;28;20051;-90
2023/05/08 05:51:03;;;;;;;14.40;12.30;;;;;;;13.09;100.00;100901.19;5057993;28;20067;-91
2023/05/08 05:53:33;;;;;;;13.10;11.70;;;;;;;12.97;100.00;100886.72;5089993;28;20045;-91
2023/05/08 05:56:06;;;;;;;13.38;11.98;;;;;;;13.06;100.00;100902.25;5059206;28;20060;-91
2023/05/08 05:58:43;;;;;;;13.43;11.85;;;;;;;13.06;100.00;100907.56;5058533;28;20038;-92
2023/05/08 06:01:14;;;;;;;14.77;12.82;;;;;;;13.11;100.00;100907.31;5058857;28;20041;-91
2023/05/08 06:03:52;;;;;;;13.25;11.70;;;;;;;12.89;100.00;100881.78;5056301;28;20072;-92
2023/05/08 06:06:23;;;;;;;14.52;11.60;;;;;;;12.92;100.00;100900.22;5052831;28;20113;-91
2023/05/08 06:09:05;;;;;;;13.88;12.48;;;;;;;12.86;100.00;100897.03;5054412;28;20105;-92
2023/05/08 06:11:42;;;;;;;14.57;12.75;;;;;;;12.84;100.00;100907.72;5051703;28;20083;-92
2023/05/08 06:14:11;;;;;;;14.25;12.52;;;;;;;12.60;100.00;100871.69;5047955;28;20049;-92
2023/05/08 06:16:38;;;;;;;14.65;12.30;;;;;;;12.56;100.00;100870.13;5046794;28;20053;-91
2023/05/08 06:19:06;;;;;;;14.18;11.73;;;;;;;12.61;100.00;100884.03;5047174;28;20045;-91
2023/05/08 06:21:38;;;;;;;13.88;12.40;;;;;;;12.79;100.00;100912.38;5051077;28;20060;-92
2023/05/08 06:24:19;;;;;;;13.55;12.07;;;;;;;12.72;100.00;100900.34;5055154;28;20049;-89
2023/05/08 06:26:46;;;;;;;14.48;12.00;;;;;;;12.77;100.00;100908.06;5055161;28;20073;-91
2023/05/08 06:29:13;;;;;;;14.20;12.80;;;;;;;12.86;100.00;100913.84;5051842;28;20105;-90
2023/05/08 06:31:43;;;;;;;14.40;11.83;;;;;;;12.76;100.00;100899.25;5052425;28;20045;-94
2023/05/08 06:34:13;;;;;;;13.65;12.25;;;;;;;12.94;100.00;100932.91;5084173;28;20185;-91
2023/05/08 06:36:54;;;;;;;15.30;12.02;;;;;;;12.93;100.00;100933.84;5036645;28;20049;-91
2023/05/08 06:39:32;;;;;;;12.98;11.57;;;;;;;12.88;100.00;100903.13;5055783;28;20072;-92
2023/05/08 06:42:07;;;;;;;12.85;11.45;;;;;;;13.04;100.00;100924.50;5053866;28;20049;-92
2023/05/08 06:44:37;;;;;;;13.50;11.77;;;;;;;13.06;100.00;100927.97;5052541;28;20063;-91
2023/05/08 06:47:07;;;;;;;14.60;12.57;;;;;;;12.91;100.00;100900.28;5038236;28;20050;-90
2023/05/08 06:49:44;;;;;;;14.82;11.70;;;;;;;13.07;100.00;100917.22;5048581;28;20979;-91
2023/05/08 06:52:14;;;;;;;16.63;12.02;;;;;;;13.20;100.00;100933.50;5047811;28;20121;-90
2023/05/08 06:54:44;;;;;;;13.30;11.68;;;;;;;13.27;100.00;100930.44;5048923;28;20041;-91
2023/05/08 06:57:35;;;;;;;13.38;11.98;;;;;;;13.40;100.00;100933.34;5049700;28;20119;-90
2023/05/08 07:00:03;;;;;;;14.43;11.23;;;;;;;13.40;100.00;100919.19;5036138;28;20053;-91
2023/05/08 07:02:43;;;;;;;12.70;11.40;;;;;;;13.49;100.00;100930.25;5054826;28;20058;-91
2023/05/08 07:05:13;;;;;;;14.18;11.43;;;;;;;13.58;100.00;100927.09;5055207;28;20083;-89
2023/05/08 07:07:43;;;;;;;12.70;11.35;;;;;;;13.60;100.00;100911.91;5051909;28;20049;-91
2023/05/08 07:10:15;;;;;;;15.85;10.77;;;;;;;13.52;100.00;100907.94;5056752;28;20033;-89
2023/05/08 07:12:52;;;;;;;13.18;11.60;;;;;;;13.65;100.00;100922.34;5054681;28;20461;-91
2023/05/08 07:15:32;;;;;;;12.65;11.35;;;;;;;13.60;100.00;100922.56;5050575;28;20129;-90
2023/05/08 07:18:01;;;;;;;12.77;11.10;;;;;;;13.30;100.00;100884.22;5050734;28;20096;-90
2023/05/08 07:20:30;;;;;;;12.05;10.60;;;;;;;13.50;100.00;100921.31;5051676;28;20057;-92
2023/05/08 07:23:00;;;;;;;13.30;11.43;;;;;;;13.53;100.00;100925.63;5035396;28;20062;-91
2023/05/08 07:25:42;;;;;;;12.93;11.18;;;;;;;13.47;100.00;100925.94;5051094;28;20065;-92
2023/05/08 07:28:09;;;;;;;13.35;11.00;;;;;;;13.50;100.00;100931.09;5044302;28;20447;-91
2023/05/08 07:30:39;;;;;;;12.40;10.27;;;;;;;13.25;100.00;100894.22;5026707;28;20045;-92
2023/05/08 07:33:06;;;;;;;14.15;12.00;;;;;;;13.47;100.00;100933.91;5042497;28;20471;-91
2023/05/08 07:35:57;;;;;;;12.50;11.20;;;;;;;13.44;100.00;100932.25;5042008;28;20049;-91
2023/05/08 07:38:27;;;;;;;13.32;11.27;;;;;;;13.35;100.00;100908.78;5040839;28;20041;-92
2023/05/08 07:40:56;;;;;;;;;;;;;;;13.51;100.00;100933.69;5042167;28;20052;-93
2023/05/08 07:43:24;;;;;;;13.60;11.50;;;;;;;13.53;100.00;100928.28;5049625;28;19913;-90
2023/05/08 07:45:51;;;;;;;14.77;11.73;;;;;;;13.58;100.00;100919.13;5056684;28;20057;-92
2023/05/08 07:48:22;;;;;;;13.00;11.40;;;;;;;13.71;100.00;100937.97;5057413;28;20080;-90
2023/05/08 07:50:49;;;;;;;14.70;12.45;;;;;;;13.75;100.00;100934.22;5052546;28;20029;-92
2023/05/08 07:53:18;;;;;;;13.40;12.00;;;;;;;13.75;100.00;100928.03;5050032;28;20143;-91
2023/05/08 07:55:47;;;;;;;13.48;12.07;;;;;;;13.69;100.00;100923.91;5052347;28;20049;-91
2023/05/08 07:58:16;;;;;;;15.48;11.75;;;;;;;13.69;100.00;100930.06;5050787;28;20048;-92
2023/05/08 08:01:03;;;;;;;16.27;11.63;;;;;;;13.78;100.00;100938.53;5045141;28;20045;-92
2023/05/08 08:03:32;;;;;;;13.35;11.68;;;;;;;13.92;100.00;100931.56;5043801;28;20454;-92
2023/05/08 08:06:04;;;;;;;14.25;11.70;;;;;;;13.91;100.00;100927.16;5046564;28;20099;-91
2023/05/08 08:08:32;;;;;;;14.90;11.93;;;;;;;13.96;100.00;100922.47;5012462;28;20057;-90
2023/05/08 08:11:13;;;;;;;12.50;11.23;;;;;;;14.04;100.00;100933.56;5042041;28;20090;-91
2023/05/08 08:13:41;;;;;;;13.88;12.05;;;;;;;14.04;100.00;100938.03;5040394;28;20045;-91
2023/05/08 08:16:07;;;;;;;12.98;11.48;;;;;;;14.03;100.00;100942.50;5027503;28;20056;-90
2023/05/08 08:18:49;;;;;;;13.85;11.27;;;;;;;13.90;100.00;100919.25;5049638;28;20041;-91
2023/05/08 08:21:16;;;;;;;13.38;11.95;;;;;;;13.96;100.00;100925.13;5039533;28;20114;-91
2023/05/08 08:23:48;;;;;;;;;;;;;;;13.97;100.00;100926.00;5041145;28;20049;-91
2023/05/08 08:26:15;;;;;;;13.57;11.85;;;;;;;13.89;100.00;100912.22;5040204;28;19916;-91
2023/05/08 08:28:42;;;;;;;13.27;11.48;;;;;;;14.10;100.00;100932.38;5043544;28;20049;-90
2023/05/08 08:31:10;;;;;;;14.23;12.25;;;;;;;13.97;100.00;100888.72;5040726;28;20049;-92
2023/05/08 08:33:46;;;;;;;16.17;11.52;;;;;;;14.35;100.00;100921.28;5041427;28;20063;-91
2023/05/08 08:36:17;;;;;;;15.60;11.52;;;;;;;14.55;100.00;100930.88;5040295;28;20109;-90
2023/05/08 08:38:58;;;;;;;12.65;11.35;;;;;;;14.70;100.00;100922.91;5040930;28;20056;-90
2023/05/08 08:41:26;;;;;;;12.52;10.75;;;;;;;14.83;100.00;100920.41;5039981;28;20056;-91
2023/05/08 08:43:57;;;;;;;13.70;11.05;;;;;;;14.90;100.00;100912.94;5042663;28;20099;-90
2023/05/08 08:46:31;;;;;;;13.13;11.80;;;;;;;15.02;100.00;100926.41;5049187;28;20068;-90
2023/05/08 08:49:01;;;;;;;13.88;11.95;;;;;;;14.89;100.00;100911.22;5050649;28;20045;-92
2023/05/08 08:51:44;;;;;;;11.93;10.57;;;;;;;14.86;100.00;100916.72;5051799;28;20045;-91
2023/05/08 08:54:16;;;;;;;13.43;10.35;;;;;;;14.95;100.00;100924.22;5052067;28;20053;-90
2023/05/08 08:56:46;;;;;;;12.10;10.90;;;;;;;14.91;100.00;100918.19;5034503;28;20103;-91
2023/05/08 08:59:21;;;;;;;13.88;10.52;;;;;;;14.82;100.00;100905.34;5046978;28;20053;-92
2023/05/08 09:02:30;;;;;;;12.50;11.18;;;;;;;14.96;100.00;100940.09;5122731;27;20752;-91
2023/05/08 09:05:17;;;;;;;13.23;10.38;;;;;;;14.97;100.00;100939.16;5096643;28;20058;-92
2023/05/08 09:08:00;;;;;;;12.18;10.32;;;;;;;15.01;100.00;100938.03;5100136;28;20048;-91
2023/05/08 09:10:27;;;;;;;12.38;11.07;;;;;;;15.03;100.00;100941.47;5080381;28;20045;-91
2023/05/08 09:13:10;;;;;;;13.20;11.80;;;;;;;15.10;100.00;100950.00;5100317;28;20048;-92
2023/05/08 09:15:45;;;;;;;12.80;11.20;;;;;;;14.85;100.00;100901.66;5108241;28;20089;-90
2023/05/08 09:18:16;;;;;;;12.30;10.85;;;;;;;14.96;100.00;100921.41;5102470;28;20068;-91
2023/05/08 09:20:52;;;;;;;13.00;11.65;;;;;;;15.02;100.00;100947.75;5084806;28;20058;-91
2023/05/08 09:23:18;;;;;;;12.23;11.02;;;;;;;14.97;100.00;100947.16;5100408;28;20044;-92
2023/05/08 09:25:47;;;;;;;13.15;10.80;;;;;;;14.99;100.00;100950.59;5099880;28;20040;-93
2023/05/08 09:28:29;;;;;;;11.90;10.60;;;;;;;14.80;100.00;100928.56;5105588;28;20040;-92
2023/05/08 09:31:01;;;;;;;12.48;10.55;;;;;;;14.93;100.00;100950.97;5084441;28;20068;-90
2023/05/08 09:33:29;;;;;;;13.57;10.95;;;;;;;14.78;100.00;100927.81;5107037;28;20052;-91
2023/05/08 09:36:27;;;;;;;13.52;11.10;;;;;;;14.85;100.00;100933.66;5099640;28;20040;-91
2023/05/08 09:38:54;;;;;;;13.40;11.80;;;;;;;15.00;100.00;100948.78;5099492;28;20040;-91
2023/05/08 09:41:23;;;;;;;13.90;12.07;;;;;;;15.03;100.00;100956.63;5098366;28;20044;-91
2023/05/08 09:44:04;;;;;;;12.90;11.38;;;;;;;14.95;100.00;100962.38;5081787;28;20048;-92
2023/05/08 09:46:38;;;;;;;14.27;12.15;;;;;;;14.96;100.00;100969.44;5098093;28;20368;-92
2023/05/08 09:49:16;;;;;;;13.35;11.65;;;;;;;14.94;100.00;100971.34;5103817;28;20039;-90
2023/05/08 09:51:54;;;;;;;13.73;12.32;;;;;;;14.94;100.00;100968.69;5079826;28;20052;-92
2023/05/08 09:54:40;;;;;;;14.65;12.35;;;;;;;14.90;100.00;100967.13;5112262;28;20036;-92
2023/05/08 09:57:12;;;;;;;15.48;12.13;;;;;;;14.86;100.00;100965.56;5104853;28;20134;-91
2023/05/08 09:59:46;;;;;;;14.32;11.48;;;;;;;14.93;100.00;100971.44;5101424;28;20044;-91
2023/05/08 10:02:28;;;;;;;13.50;12.07;;;;;;;14.92;100.00;100975.91;5100716;28;20153;-90
2023/05/08 10:04:56;;;;;;;14.35;12.07;;;;;;;15.02;100.00;100976.22;5098643;28;20098;-91
2023/05/08 10:07:35;;;;;;;14.88;11.93;;;;;;;14.97;100.00;100952.47;5097548;28;20087;-91
2023/05/08 10:10:06;;;;;;;13.50;11.35;;;;;;;15.13;100.00;100959.63;5097209;28;20441;-92
2023/05/08 10:12:32;;;;;;;13.93;12.43;;;;;;;15.08;100.00;100939.41;5089980;28;20044;-91
2023/05/08 10:14:59;;;;;;;15.10;13.02;;;;;;;15.29;100.00;100961.31;5067210;28;20381;-91
2023/05/08 10:17:33;;;;;;;13.82;12.38;;;;;;;15.34;100.00;100977.06;5086460;28;20040;-92
2023/05/08 10:20:06;;;;;;;14.30;12.90;;;;;;;15.22;100.00;100953.78;5083979;28;20115;-91
2023/05/08 10:22:37;;;;;;;14.57;12.18;;;;;;;15.37;100.00;100969.75;5070839;28;20060;-91
2023/05/08 10:25:11;;;;;;;13.38;11.98;;;;;;;15.31;100.00;100943.41;5088925;28;20041;-92
2023/05/08 10:28:20;;;;;;;13.30;11.73;;;;;;;15.70;100.00;100964.31;5091950;28;20084;-92
2023/05/08 10:30:49;;;;;;;13.50;12.07;;;;;;;15.77;100.00;100930.91;5097235;28;20033;-91
2023/05/08 10:33:20;;;;;;;15.15;12.32;;;;;;;16.03;100.00;100953.41;5096014;28;20036;-90
2023/05/08 10:35:49;;;;;;;13.65;11.95;;;;;;;16.05;100.00;100946.16;5078596;28;20080;-90
2023/05/08 10:38:33;;;;;;;13.63;11.90;;;;;;;16.32;100.00;100954.28;5095153;28;20033;-91
2023/05/08 10:41:18;;;;;;;12.35;11.05;;;;;;;16.53;100.00;100943.22;5084329;28;20095;-91
2023/05/08 10:43:54;;;;;;;12.93;11.35;;;;;;;16.91;100.00;100962.19;5099423;28;20147;-90
2023/05/08 10:46:42;;;;;;;12.32;11.10;;;;;;;17.01;100.00;100953.47;5098418;28;20040;-90
2023/05/08 10:49:20;;;;;;;15.13;11.65;;;;;;;16.84;100.00;100922.44;5087389;28;20048;-91
2023/05/08 10:52:00;;;;;;;12.40;11.13;;;;;;;17.12;100.00;100961.69;5085138;28;20041;-92
2023/05/08 10:54:38;;;;;;;13.02;10.48;;;;;;;17.15;100.00;100958.81;5084406;28;20044;-93
2023/05/08 10:57:13;;;;;;;14.20;11.07;;;;;;;17.22;100.00;100951.22;5064654;28;20377;-93
2023/05/08 10:59:45;;;;;;;12.97;11.40;;;;;;;17.25;100.00;100944.81;5085120;28;20437;-92
2023/05/08 11:02:15;;;;;;;12.43;11.18;;;;;;;17.36;100.00;100939.59;5081006;28;20048;-91
2023/05/08 11:05:22;;;;;;;14.18;10.75;;;;;;;17.52;100.00;100942.97;5086479;28;20052;-90
2023/05/08 11:07:58;;;;;;;12.02;10.02;;;;;;;17.70;100.00;100947.13;5066107;28;20457;-93
2023/05/08 11:10:30;;;;;;;11.23;10.13;;;;;;;17.80;98.77;100932.13;5081575;28;20392;-92
2023/05/08 11:13:00;;;;;;;11.13;10.00;;;;;;;18.00;96.92;100943.28;5082289;28;20068;-91
2023/05/08 11:15:40;;;;;;;11.32;10.23;;;;;;;18.09;93.76;100940.00;5084065;28;20044;-91
2023/05/08 11:18:15;;;;;;;11.82;10.15;;;;;;;18.21;94.11;100947.19;5083449;28;20107;-92
2023/05/08 11:21:02;;;;;;;12.50;10.35;;;;;;;18.24;90.47;100938.94;5082685;28;20459;-92
2023/05/08 11:23:37;;;;;;;13.38;11.38;;;;;;;18.13;91.36;100938.78;5080675;28;20135;-93
2023/05/08 11:26:16;;;;;;;11.32;10.10;;;;;;;18.22;92.86;100938.19;5085140;28;20052;-93
2023/05/08 11:28:55;;;;;;;11.88;10.68;;;;;;;18.25;92.98;100913.84;5088244;28;20055;-92
2023/05/08 11:31:43;;;;;;;11.70;10.50;;;;;;;18.42;91.10;100921.50;5095855;28;20051;-91
2023/05/08 11:34:42;;;;;;;13.05;10.77;;;;;;;18.63;89.94;100945.97;5098695;28;20082;-92
2023/05/08 11:37:20;;;;;;;12.35;11.10;;;;;;;18.59;88.89;100944.47;5097941;28;20045;-92